sensor_id;sensor_type;location;lat;lon;timestamp;pressure;altitude;pressure_sealevel;temperature;humidity
60089;BME280;45961;53.574;55.878;2022-12-29T00:00:21;100763.47;;;-6.68;77.93
60089;BME280;45961;53.574;55.878;2022-12-29T00:01:22;100761.22;;;-6.65;77.84
60089;BME280;45961;53.574;55.878;2022-12-29T00:02:22;100761.94;;;-6.77;77.57
60089;BME280;45961;53.574;55.878;2022-12-29T00:03:24;100763.97;;;-6.73;77.60
60089;BME280;45961;53.574;55.878;2022-12-29T00:04:25;100755.63;;;-6.82;77.27
60089;BME280;45961;53.574;55.878;2022-12-29T00:05:26;100759.81;;;-6.72;77.41
60089;BME280;45961;53.574;55.878;2022-12-29T00:06:27;100761.59;;;-6.71;77.32
60089;BME280;45961;53.574;55.878;2022-12-29T00:07:28;100758.44;;;-6.68;77.17
60089;BME280;45961;53.574;55.878;2022-12-29T00:08:29;100757.34;;;-6.62;76.99
60089;BME280;45961;53.574;55.878;2022-12-29T00:09:42;100723.03;;;-6.80;77.07
60089;BME280;45961;53.574;55.878;2022-12-29T00:10:43;100745.25;;;-6.66;77.03
60089;BME280;45961;53.574;55.878;2022-12-29T00:11:44;100759.81;;;-6.72;76.73
60089;BME280;45961;53.574;55.878;2022-12-29T00:12:45;100758.03;;;-6.73;76.79
60089;BME280;45961;53.574;55.878;2022-12-29T00:14:05;100736.66;;;-6.78;76.67
60089;BME280;45961;53.574;55.878;2022-12-29T00:15:25;100757.16;;;-6.74;76.66
60089;BME280;45961;53.574;55.878;2022-12-29T00:16:40;100741.88;;;-6.85;76.73
60089;BME280;45961;53.574;55.878;2022-12-29T00:17:41;100740.41;;;-6.83;76.76
60089;BME280;45961;53.574;55.878;2022-12-29T00:18:42;100744.94;;;-6.79;76.90
60089;BME280;45961;53.574;55.878;2022-12-29T00:19:43;100742.34;;;-6.71;76.93
60089;BME280;45961;53.574;55.878;2022-12-29T00:21:03;100743.69;;;-6.74;76.69
60089;BME280;45961;53.574;55.878;2022-12-29T00:22:23;100740.78;;;-6.79;76.73
60089;BME280;45961;53.574;55.878;2022-12-29T00:23:43;100744.78;;;-6.81;76.76
60089;BME280;45961;53.574;55.878;2022-12-29T00:25:07;100738.78;;;-6.83;76.81
60089;BME280;45961;53.574;55.878;2022-12-29T00:26:26;100733.47;;;-6.76;76.59
60089;BME280;45961;53.574;55.878;2022-12-29T00:27:46;100751.09;;;-6.76;76.44
60089;BME280;45961;53.574;55.878;2022-12-29T00:29:07;100745.44;;;-6.83;76.55
60089;BME280;45961;53.574;55.878;2022-12-29T00:30:27;100749.34;;;-6.77;76.58
60089;BME280;45961;53.574;55.878;2022-12-29T00:31:47;100735.16;;;-6.66;76.41
60089;BME280;45961;53.574;55.878;2022-12-29T00:33:19;100740.31;;;-6.75;76.22
60089;BME280;45961;53.574;55.878;2022-12-29T00:34:39;100741.56;;;-6.69;76.21
60089;BME280;45961;53.574;55.878;2022-12-29T00:36:06;100738.06;;;-6.61;75.90
60089;BME280;45961;53.574;55.878;2022-12-29T00:37:07;100733.41;;;-6.67;75.98
60089;BME280;45961;53.574;55.878;2022-12-29T00:38:09;100731.88;;;-6.65;75.93
60089;BME280;45961;53.574;55.878;2022-12-29T00:39:29;100723.19;;;-6.79;75.83
60089;BME280;45961;53.574;55.878;2022-12-29T00:40:49;100740.44;;;-6.73;75.92
60089;BME280;45961;53.574;55.878;2022-12-29T00:42:09;100739.19;;;-6.68;76.05
60089;BME280;45961;53.574;55.878;2022-12-29T00:43:39;100738.94;;;-6.71;76.03
60089;BME280;45961;53.574;55.878;2022-12-29T00:44:58;100739.91;;;-6.79;76.13
60089;BME280;45961;53.574;55.878;2022-12-29T00:45:59;100740.03;;;-6.78;76.08
60089;BME280;45961;53.574;55.878;2022-12-29T00:47:00;100742.44;;;-6.79;76.14
60089;BME280;45961;53.574;55.878;2022-12-29T00:48:03;100747.13;;;-6.63;76.09
60089;BME280;45961;53.574;55.878;2022-12-29T00:49:07;100746.72;;;-6.68;76.20
60089;BME280;45961;53.574;55.878;2022-12-29T00:50:27;100741.00;;;-6.86;76.00
60089;BME280;45961;53.574;55.878;2022-12-29T00:51:28;100744.19;;;-6.78;76.05
60089;BME280;45961;53.574;55.878;2022-12-29T00:52:29;100755.97;;;-6.87;75.98
60089;BME280;45961;53.574;55.878;2022-12-29T00:53:30;100744.78;;;-6.81;75.95
60089;BME280;45961;53.574;55.878;2022-12-29T00:54:33;100747.47;;;-6.79;75.83
60089;BME280;45961;53.574;55.878;2022-12-29T00:55:37;100743.66;;;-6.84;75.76
60089;BME280;45961;53.574;55.878;2022-12-29T00:56:39;100744.53;;;-6.84;75.82
60089;BME280;45961;53.574;55.878;2022-12-29T00:57:40;100737.44;;;-6.98;75.78
60089;BME280;45961;53.574;55.878;2022-12-29T00:58:41;100737.75;;;-6.85;75.70
60089;BME280;45961;53.574;55.878;2022-12-29T00:59:42;100743.31;;;-6.79;75.59
60089;BME280;45961;53.574;55.878;2022-12-29T01:00:43;100734.63;;;-6.82;75.57
60089;BME280;45961;53.574;55.878;2022-12-29T01:01:45;100758.75;;;-6.84;75.60
60089;BME280;45961;53.574;55.878;2022-12-29T01:02:46;100734.72;;;-6.81;75.42
60089;BME280;45961;53.574;55.878;2022-12-29T01:03:47;100739.00;;;-6.80;75.54
60089;BME280;45961;53.574;55.878;2022-12-29T01:04:48;100736.25;;;-6.83;75.40
60089;BME280;45961;53.574;55.878;2022-12-29T01:05:50;100733.38;;;-6.77;75.30
60089;BME280;45961;53.574;55.878;2022-12-29T01:06:51;100733.25;;;-6.79;75.30
60089;BME280;45961;53.574;55.878;2022-12-29T01:07:53;100733.97;;;-6.80;75.20
60089;BME280;45961;53.574;55.878;2022-12-29T01:08:54;100732.44;;;-6.88;75.15
60089;BME280;45961;53.574;55.878;2022-12-29T01:10:13;100723.88;;;-6.90;75.13
60089;BME280;45961;53.574;55.878;2022-12-29T01:11:15;100734.88;;;-6.79;75.23
60089;BME280;45961;53.574;55.878;2022-12-29T01:12:18;100723.00;;;-6.90;75.24
60089;BME280;45961;53.574;55.878;2022-12-29T01:13:39;100735.59;;;-6.80;75.15
60089;BME280;45961;53.574;55.878;2022-12-29T01:14:41;100734.13;;;-6.78;75.10
60089;BME280;45961;53.574;55.878;2022-12-29T01:15:49;100735.38;;;-6.83;74.98
60089;BME280;45961;53.574;55.878;2022-12-29T01:16:51;100733.84;;;-6.81;74.87
60089;BME280;45961;53.574;55.878;2022-12-29T01:17:53;100736.84;;;-6.85;74.86
60089;BME280;45961;53.574;55.878;2022-12-29T01:18:54;100694.44;;;-7.20;74.75
60089;BME280;45961;53.574;55.878;2022-12-29T01:19:55;100743.44;;;-6.77;74.65
60089;BME280;45961;53.574;55.878;2022-12-29T01:21:05;100733.47;;;-6.76;74.55
60089;BME280;45961;53.574;55.878;2022-12-29T01:22:06;100744.59;;;-6.74;74.60
60089;BME280;45961;53.574;55.878;2022-12-29T01:23:07;100735.59;;;-6.80;74.40
60089;BME280;45961;53.574;55.878;2022-12-29T01:24:08;100739.06;;;-6.69;74.30
60089;BME280;45961;53.574;55.878;2022-12-29T01:25:09;100731.59;;;-6.78;74.11
60089;BME280;45961;53.574;55.878;2022-12-29T01:26:14;100738.88;;;-6.81;74.20
60089;BME280;45961;53.574;55.878;2022-12-29T01:27:15;100742.00;;;-6.84;74.06
60089;BME280;45961;53.574;55.878;2022-12-29T01:28:16;100725.91;;;-6.86;74.15
60089;BME280;45961;53.574;55.878;2022-12-29T01:29:17;100738.88;;;-6.81;74.21
60089;BME280;45961;53.574;55.878;2022-12-29T01:30:19;100734.13;;;-6.78;74.21
60089;BME280;45961;53.574;55.878;2022-12-29T01:31:20;100731.13;;;-6.74;74.14
60089;BME280;45961;53.574;55.878;2022-12-29T01:32:22;100732.09;;;-6.82;74.18
60089;BME280;45961;53.574;55.878;2022-12-29T01:33:23;100739.38;;;-6.85;74.08
60089;BME280;45961;53.574;55.878;2022-12-29T01:34:24;100720.50;;;-6.80;74.13
60089;BME280;45961;53.574;55.878;2022-12-29T01:35:25;100736.38;;;-6.81;74.07
60089;BME280;45961;53.574;55.878;2022-12-29T01:36:26;100722.53;;;-6.76;74.13
60089;BME280;45961;53.574;55.878;2022-12-29T01:37:27;100732.09;;;-6.82;73.91
60089;BME280;45961;53.574;55.878;2022-12-29T01:38:27;100733.84;;;-6.81;74.12
